sensor_id;sensor_type;location;lat;lon;timestamp;pressure;altitude;pressure_sealevel;temperature;humidity
6899;BME280;3488;42.616;23.350;2023-02-04T00:02:26;62138.38;;;1.34;93.06
6899;BME280;3488;42.616;23.350;2023-02-04T00:04:53;62143.44;;;1.37;93.99
6899;BME280;3488;42.616;23.350;2023-02-04T00:07:20;62135.34;;;1.34;94.90
6899;BME280;3488;42.616;23.350;2023-02-04T00:09:47;62125.66;;;1.27;96.07
6899;BME280;3488;42.616;23.350;2023-02-04T00:12:15;62141.91;;;1.35;96.72
6899;BME280;3488;42.616;23.350;2023-02-04T00:14:42;62136.31;;;1.32;97.47
6899;BME280;3488;42.616;23.350;2023-02-04T00:17:09;62127.06;;;1.23;98.23
6899;BME280;3488;42.616;23.350;2023-02-04T00:19:38;62128.00;;;1.19;98.80
6899;BME280;3488;42.616;23.350;2023-02-04T00:22:04;62096.94;;;0.98;100.00
6899;BME280;3488;42.616;23.350;2023-02-04T00:24:32;62097.84;;;0.94;100.00
6899;BME280;3488;42.616;23.350;2023-02-04T00:26:59;62105.03;;;1.01;100.00
6899;BME280;3488;42.616;23.350;2023-02-04T00:29:28;62092.31;;;0.94;100.00
6899;BME280;3488;42.616;23.350;2023-02-04T00:31:55;62102.00;;;1.01;100.00
6899;BME280;3488;42.616;23.350;2023-02-04T00:34:22;62108.03;;;1.02;100.00
6899;BME280;3488;42.616;23.350;2023-02-04T00:36:49;62100.47;;;0.99;100.00
6899;BME280;3488;42.616;23.350;2023-02-04T00:39:16;62094.78;;;0.91;100.00
6899;BME280;3488;42.616;23.350;2023-02-04T00:41:43;62079.97;;;0.79;100.00
6899;BME280;3488;42.616;23.350;2023-02-04T00:44:10;62069.25;;;0.71;100.00
6899;BME280;3488;42.616;23.350;2023-02-04T00:46:40;62071.81;;;0.74;100.00
6899;BME280;3488;42.616;23.350;2023-02-04T00:49:07;62058.44;;;0.58;100.00
6899;BME280;3488;42.616;23.350;2023-02-04T00:51:36;62067.03;;;0.62;100.00
6899;BME280;3488;42.616;23.350;2023-02-04T00:54:03;62056.81;;;0.54;100.00
6899;BME280;3488;42.616;23.350;2023-02-04T00:56:30;62039.41;;;0.37;100.00
6899;BME280;3488;42.616;23.350;2023-02-04T00:58:57;62047.16;;;0.47;100.00
6899;BME280;3488;42.616;23.350;2023-02-04T01:01:24;62021.53;;;0.22;100.00
6899;BME280;3488;42.616;23.350;2023-02-04T01:03:52;62011.31;;;0.15;100.00
6899;BME280;3488;42.616;23.350;2023-02-04T01:06:20;62010.19;;;0.09;100.00
6899;BME280;3488;42.616;23.350;2023-02-04T01:08:46;62002.50;;;0.01;100.00
6899;BME280;3488;42.616;23.350;2023-02-04T01:11:13;62006.03;;;0.02;100.00
6899;BME280;3488;42.616;23.350;2023-02-04T01:13:40;62008.13;;;0.07;100.00
6899;BME280;3488;42.616;23.350;2023-02-04T01:16:07;62013.19;;;0.09;100.00
6899;BME280;3488;42.616;23.350;2023-02-04T01:18:34;62020.94;;;0.19;100.00
6899;BME280;3488;42.616;23.350;2023-02-04T01:21:03;62019.41;;;0.18;100.00
6899;BME280;3488;42.616;23.350;2023-02-04T01:23:30;62025.56;;;0.24;100.00
6899;BME280;3488;42.616;23.350;2023-02-04T01:25:58;61993.78;;;-0.08;100.00
6899;BME280;3488;42.616;23.350;2023-02-04T01:28:25;62005.56;;;0.04;100.00
6899;BME280;3488;42.616;23.350;2023-02-04T01:30:52;62014.81;;;0.13;100.00
6899;BME280;3488;42.616;23.350;2023-02-04T01:33:18;62023.06;;;0.24;100.00
6899;BME280;3488;42.616;23.350;2023-02-04T01:35:45;62022.09;;;0.25;100.00
6899;BME280;3488;42.616;23.350;2023-02-04T01:38:14;62027.66;;;0.28;100.00
6899;BME280;3488;42.616;23.350;2023-02-04T01:40:41;62021.47;;;0.20;100.00
6899;BME280;3488;42.616;23.350;2023-02-04T01:43:09;62018.84;;;0.15;100.00
6899;BME280;3488;42.616;23.350;2023-02-04T01:45:37;62034.78;;;0.33;100.00
6899;BME280;3488;42.616;23.350;2023-02-04T01:48:05;62047.03;;;0.42;100.00
6899;BME280;3488;42.616;23.350;2023-02-04T01:50:33;62040.47;;;0.41;100.00
6899;BME280;3488;42.616;23.350;2023-02-04T01:53:00;62055.28;;;0.53;100.00
6899;BME280;3488;42.616;23.350;2023-02-04T01:55:30;62054.28;;;0.52;100.00
6899;BME280;3488;42.616;23.350;2023-02-04T01:57:57;62052.34;;;0.55;100.00
6899;BME280;3488;42.616;23.350;2023-02-04T02:00:27;62062.06;;;0.64;100.00
6899;BME280;3488;42.616;23.350;2023-02-04T02:02:55;62080.31;;;0.72;100.00
6899;BME280;3488;42.616;23.350;2023-02-04T02:05:24;62073.72;;;0.71;100.00
6899;BME280;3488;42.616;23.350;2023-02-04T02:07:54;62078.81;;;0.73;100.00
6899;BME280;3488;42.616;23.350;2023-02-04T02:10:23;62074.31;;;0.74;100.00
6899;BME280;3488;42.616;23.350;2023-02-04T02:12:52;62082.91;;;0.77;100.00
6899;BME280;3488;42.616;23.350;2023-02-04T02:15:20;62079.81;;;0.74;100.00
6899;BME280;3488;42.616;23.350;2023-02-04T02:17:48;62096.75;;;0.91;100.00
6899;BME280;3488;42.616;23.350;2023-02-04T02:20:17;62098.34;;;0.95;100.00
6899;BME280;3488;42.616;23.350;2023-02-04T02:22:54;62100.91;;;0.97;100.00
6899;BME280;3488;42.616;23.350;2023-02-04T02:25:25;62099.91;;;0.96;100.00
6899;BME280;3488;42.616;23.350;2023-02-04T02:27:52;62103.03;;;1.02;100.00
6899;BME280;3488;42.616;23.350;2023-02-04T02:30:19;62091.88;;;0.96;100.00
6899;BME280;3488;42.616;23.350;2023-02-04T02:32:47;62086.56;;;0.83;100.00
6899;BME280;3488;42.616;23.350;2023-02-04T02:35:16;62093.28;;;0.92;100.00
6899;BME280;3488;42.616;23.350;2023-02-04T02:37:45;62099.91;;;0.96;100.00
6899;BME280;3488;42.616;23.350;2023-02-04T02:40:13;62083.03;;;0.82;100.00
6899;BME280;3488;42.616;23.350;2023-02-04T02:42:42;62078.88;;;0.76;100.00
6899;BME280;3488;42.616;23.350;2023-02-04T02:45:19;62076.31;;;0.73;100.00
6899;BME280;3488;42.616;23.350;2023-02-04T02:47:48;62064.00;;;0.61;100.00
6899;BME280;3488;42.616;23.350;2023-02-04T02:50:17;62045.59;;;0.46;100.00
6899;BME280;3488;42.616;23.350;2023-02-04T02:52:45;62044.00;;;0.42;100.00
6899;BME280;3488;42.616;23.350;2023-02-04T02:55:14;62027.63;;;0.26;100.00
6899;BME280;3488;42.616;23.350;2023-02-04T02:57:43;62027.63;;;0.26;100.00
6899;BME280;3488;42.616;23.350;2023-02-04T03:00:16;62023.56;;;0.24;100.00
6899;BME280;3488;42.616;23.350;2023-02-04T03:02:44;62022.03;;;0.23;100.00
6899;BME280;3488;42.616;23.350;2023-02-04T03:05:11;62032.66;;;0.28;100.00
6899;BME280;3488;42.616;23.350;2023-02-04T03:07:39;62036.91;;;0.37;100.00
6899;BME280;3488;42.616;23.350;2023-02-04T03:10:06;62045.09;;;0.45;100.00
6899;BME280;3488;42.616;23.350;2023-02-04T03:12:33;62046.50;;;0.42;100.00
6899;BME280;3488;42.616;23.350;2023-02-04T03:15:03;62062.84;;;0.55;100.00
6899;BME280;3488;42.616;23.350;2023-02-04T03:17:31;62051.78;;;0.52;100.00
6899;BME280;3488;42.616;23.350;2023-02-04T03:19:59;62057.97;;;0.60;100.00
6899;BME280;3488;42.616;23.350;2023-02-04T03:22:25;62074.31;;;0.74;100.00
6899;BME280;3488;42.616;23.350;2023-02-04T03:24:52;62088.63;;;0.85;100.00
6899;BME280;3488;42.616;23.350;2023-02-04T03:27:20;62096.88;;;0.96;100.00
6899;BME280;3488;42.616;23.350;2023-02-04T03:29:46;62091.75;;;0.91;100.00
6899;BME280;3488;42.616;23.350;2023-02-04T03:32:15;62088.09;;;0.85;100.00
6899;BME280;3488;42.616;23.350;2023-02-04T03:34:42;62092.78;;;0.92;100.00
6899;BME280;3488;42.616;23.350;2023-02-04T03:37:09;62104.00;;;1.00;100.00
6899;BME280;3488;42.616;23.350;2023-02-04T03:39:36;62084.50;;;0.81;100.00
6899;BME280;3488;42.616;23.350;2023-02-04T03:42:03;62079.25;;;0.71;100.00
6899;BME280;3488;42.616;23.350;2023-02-04T03:44:30;62082.97;;;0.80;100.00
6899;BME280;3488;42.616;23.350;2023-02-04T03:46:57;62074.69;;;0.69;100.00
6899;BME280;3488;42.616;23.350;2023-02-04T03:49:25;62079.81;;;0.74;100.00
6899;BME280;3488;42.616;23.350;2023-02-04T03:51:53;62090.72;;;0.90;100.00
6899;BME280;3488;42.616;23.350;2023-02-04T03:54:20;62084.00;;;0.81;100.00
6899;BME280;3488;42.616;23.350;2023-02-04T03:56:47;62094.31;;;0.93;100.00
6899;BME280;3488;42.616;23.350;2023-02-04T03:59:14;62104.56;;;1.03;100.00
6899;BME280;3488;42.616;23.350;2023-02-04T04:01:41;62104.00;;;1.00;100.00
6899;BME280;3488;42.616;23.350;2023-02-04T04:04:08;62109.72;;;1.08;100.00
6899;BME280;3488;42.616;23.350;2023-02-04T04:06:36;62096.38;;;0.95;100.00
6899;BME280;3488;42.616;23.350;2023-02-04T04:09:03;62111.19;;;1.07;100.00
6899;BME280;3488;42.616;23.350;2023-02-04T04:11:30;62117.78;;;1.11;100.00
6899;BME280;3488;42.616;23.350;2023-02-04T04:13:57;62120.94;;;1.17;100.00
6899;BME280;3488;42.616;23.350;2023-02-04T04:16:25;62128.63;;;1.25;100.00
6899;BME280;3488;42.616;23.350;2023-02-04T04:18:53;62121.50;;;1.20;100.00
6899;BME280;3488;42.616;23.350;2023-02-04T04:21:21;62114.78;;;1.11;100.00
6899;BME280;3488;42.616;23.350;2023-02-04T04:23:49;62118.94;;;1.17;100.00
6899;BME280;3488;42.616;23.350;2023-02-04T04:26:16;62109.63;;;1.06;100.00
6899;BME280;3488;42.616;23.350;2023-02-04T04:28:43;62118.88;;;1.15;100.00
6899;BME280;3488;42.616;23.350;2023-02-04T04:31:10;62124.00;;;1.20;100.00
6899;BME280;3488;42.616;23.350;2023-02-04T04:33:37;62125.03;;;1.21;100.00
6899;BME280;3488;42.616;23.350;2023-02-04T04:36:04;62128.72;;;1.30;100.00
6899;BME280;3488;42.616;23.350;2023-02-04T04:38:32;62117.34;;;1.13;100.00
6899;BME280;3488;42.616;23.350;2023-02-04T04:41:00;62111.19;;;1.07;100.00
6899;BME280;3488;42.616;23.350;2023-02-04T04:43:27;62104.00;;;1.00;100.00
6899;BME280;3488;42.616;23.350;2023-02-04T04:45:54;62104.69;;;1.08;100.00
6899;BME280;3488;42.616;23.350;2023-02-04T04:48:21;62099.44;;;0.98;100.00
6899;BME280;3488;42.616;23.350;2023-02-04T04:50:49;62101.00;;;1.00;100.00
6899;BME280;3488;42.616;23.350;2023-02-04T04:53:16;62095.34;;;0.94;100.00
6899;BME280;3488;42.616;23.350;2023-02-04T04:55:43;62110.16;;;1.06;100.00
6899;BME280;3488;42.616;23.350;2023-02-04T04:58:11;62114.31;;;1.13;100.00
6899;BME280;3488;42.616;23.350;2023-02-04T05:00:38;62124.53;;;1.21;100.00
6899;BME280;3488;42.616;23.350;2023-02-04T05:03:05;62125.53;;;1.22;100.00
6899;BME280;3488;42.616;23.350;2023-02-04T05:05:32;62127.66;;;1.26;100.00
6899;BME280;3488;42.616;23.350;2023-02-04T05:08:04;62131.25;;;1.30;100.00
6899;BME280;3488;42.616;23.350;2023-02-04T05:10:31;62126.56;;;1.23;100.00
6899;BME280;3488;42.616;23.350;2023-02-04T05:12:59;62134.78;;;1.31;100.00
6899;BME280;3488;42.616;23.350;2023-02-04T05:15:27;62135.78;;;1.32;100.00
6899;BME280;3488;42.616;23.350;2023-02-04T05:17:55;62144.47;;;1.38;100.00
6899;BME280;3488;42.616;23.350;2023-02-04T05:20:22;62137.34;;;1.33;100.00
6899;BME280;3488;42.616;23.350;2023-02-04T05:22:49;62141.91;;;1.35;100.00
6899;BME280;3488;42.616;23.350;2023-02-04T05:25:16;62138.88;;;1.35;100.00
6899;BME280;3488;42.616;23.350;2023-02-04T05:27:44;62133.63;;;1.25;100.00
6899;BME280;3488;42.616;23.350;2023-02-04T05:30:14;62094.25;;;0.91;100.00
6899;BME280;3488;42.616;23.350;2023-02-04T05:32:42;62102.47;;;0.99;100.00
6899;BME280;3488;42.616;23.350;2023-02-04T05:35:09;62099.38;;;0.96;100.00
6899;BME280;3488;42.616;23.350;2023-02-04T05:37:36;62093.75;;;0.90;100.00
6899;BME280;3488;42.616;23.350;2023-02-04T05:40:04;62095.28;;;0.92;100.00
6899;BME280;3488;42.616;23.350;2023-02-04T05:42:31;62097.28;;;0.91;100.00
6899;BME280;3488;42.616;23.350;2023-02-04T05:44:58;62075.34;;;0.75;100.00
6899;BME280;3488;42.616;23.350;2023-02-04T05:47:25;62076.38;;;0.76;100.00
6899;BME280;3488;42.616;23.350;2023-02-04T05:49:53;62069.69;;;0.69;100.00
6899;BME280;3488;42.616;23.350;2023-02-04T05:52:20;62116.75;;;1.10;100.00
6899;BME280;3488;42.616;23.350;2023-02-04T05:54:47;62124.53;;;1.21;100.00
6899;BME280;3488;42.616;23.350;2023-02-04T05:57:14;62130.63;;;1.24;100.00
6899;BME280;3488;42.616;23.350;2023-02-04T05:59:41;62160.53;;;1.61;100.00
6899;BME280;3488;42.616;23.350;2023-02-04T06:02:08;62181.53;;;1.79;100.00
6899;BME280;3488;42.616;23.350;2023-02-04T06:04:35;62192.31;;;1.89;100.00
6899;BME280;3488;42.616;23.350;2023-02-04T06:07:04;62199.53;;;1.99;100.00
6899;BME280;3488;42.616;23.350;2023-02-04T06:09:31;62215.47;;;2.14;99.76
6899;BME280;3488;42.616;23.350;2023-02-04T06:11:58;62231.34;;;2.27;94.80
6899;BME280;3488;42.616;23.350;2023-02-04T06:14:25;62248.28;;;2.44;91.74
6899;BME280;3488;42.616;23.350;2023-02-04T06:16:52;62249.19;;;2.40;90.38
6899;BME280;3488;42.616;23.350;2023-02-04T06:19:19;62278.94;;;2.67;89.21
6899;BME280;3488;42.616;23.350;2023-02-04T06:21:47;62275.50;;;2.71;88.83
6899;BME280;3488;42.616;23.350;2023-02-04T06:24:15;62280.56;;;2.73;88.20
6899;BME280;3488;42.616;23.350;2023-02-04T06:26:42;62293.94;;;2.86;87.54
6899;BME280;3488;42.616;23.350;2023-02-04T06:29:09;62297.59;;;2.92;88.74
6899;BME280;3488;42.616;23.350;2023-02-04T06:31:36;62306.31;;;3.01;87.96
6899;BME280;3488;42.616;23.350;2023-02-04T06:34:03;62313.94;;;3.03;85.93
6899;BME280;3488;42.616;23.350;2023-02-04T06:36:31;62315.47;;;3.05;83.14
6899;BME280;3488;42.616;23.350;2023-02-04T06:38:58;62320.16;;;3.12;81.66
6899;BME280;3488;42.616;23.350;2023-02-04T06:41:27;62323.84;;;3.20;80.10
6899;BME280;3488;42.616;23.350;2023-02-04T06:43:53;62322.22;;;3.14;79.74
6899;BME280;3488;42.616;23.350;2023-02-04T06:46:20;62318.66;;;3.13;79.79
6899;BME280;3488;42.616;23.350;2023-02-04T06:48:47;62327.91;;;3.22;80.18
6899;BME280;3488;42.616;23.350;2023-02-04T06:51:14;62337.06;;;3.26;79.96
6899;BME280;3488;42.616;23.350;2023-02-04T06:53:41;62339.06;;;3.25;80.61
6899;BME280;3488;42.616;23.350;2023-02-04T06:56:10;62348.91;;;3.40;82.25
6899;BME280;3488;42.616;23.350;2023-02-04T06:58:38;62350.97;;;3.42;80.21
6899;BME280;3488;42.616;23.350;2023-02-04T07:01:05;62349.97;;;3.41;78.87
6899;BME280;3488;42.616;23.350;2023-02-04T07:03:33;62364.81;;;3.53;78.25
6899;BME280;3488;42.616;23.350;2023-02-04T07:05:59;62366.97;;;3.60;77.43
6899;BME280;3488;42.616;23.350;2023-02-04T07:08:26;62368.97;;;3.60;78.03
6899;BME280;3488;42.616;23.350;2023-02-04T07:10:53;62361.78;;;3.52;79.61
6899;BME280;3488;42.616;23.350;2023-02-04T07:13:20;62352.53;;;3.43;80.72
6899;BME280;3488;42.616;23.350;2023-02-04T07:15:48;62348.97;;;3.42;81.47
6899;BME280;3488;42.616;23.350;2023-02-04T07:18:17;62362.34;;;3.55;82.65
6899;BME280;3488;42.616;23.350;2023-02-04T07:20:44;62355.22;;;3.51;83.09
6899;BME280;3488;42.616;23.350;2023-02-04T07:23:12;62359.78;;;3.53;82.63
6899;BME280;3488;42.616;23.350;2023-02-04T07:25:39;62372.06;;;3.63;80.30
6899;BME280;3488;42.616;23.350;2023-02-04T07:28:08;62373.03;;;3.61;79.30
6899;BME280;3488;42.616;23.350;2023-02-04T07:30:36;62372.56;;;3.63;79.08
6899;BME280;3488;42.616;23.350;2023-02-04T07:33:04;62363.94;;;3.60;78.56
6899;BME280;3488;42.616;23.350;2023-02-04T07:35:31;62374.13;;;3.65;78.28
6899;BME280;3488;42.616;23.350;2023-02-04T07:37:58;62361.31;;;3.54;78.81
6899;BME280;3488;42.616;23.350;2023-02-04T07:40:26;62373.13;;;3.66;79.41
6899;BME280;3488;42.616;23.350;2023-02-04T07:42:53;62388.53;;;3.79;79.91
6899;BME280;3488;42.616;23.350;2023-02-04T07:45:20;62400.41;;;3.93;78.60
6899;BME280;3488;42.616;23.350;2023-02-04T07:47:47;62385.47;;;3.78;77.14
6899;BME280;3488;42.616;23.350;2023-02-04T07:50:16;62403.34;;;3.88;76.37
6899;BME280;3488;42.616;23.350;2023-02-04T07:52:43;62443.03;;;4.32;73.26
6899;BME280;3488;42.616;23.350;2023-02-04T07:55:10;62455.94;;;4.47;70.98
6899;BME280;3488;42.616;23.350;2023-02-04T07:57:37;62455.91;;;4.44;69.57
6899;BME280;3488;42.616;23.350;2023-02-04T08:00:04;62467.69;;;4.53;69.67
6899;BME280;3488;42.616;23.350;2023-02-04T08:02:31;62472.50;;;4.65;70.43
6899;BME280;3488;42.616;23.350;2023-02-04T08:04:58;62477.44;;;4.60;70.77
6899;BME280;3488;42.616;23.350;2023-02-04T08:07:27;62457.97;;;4.46;71.88
6899;BME280;3488;42.616;23.350;2023-02-04T08:09:53;62449.72;;;4.38;73.25
6899;BME280;3488;42.616;23.350;2023-02-04T08:12:20;62445.06;;;4.31;74.25
6899;BME280;3488;42.616;23.350;2023-02-04T08:14:47;62431.25;;;4.23;76.73
6899;BME280;3488;42.616;23.350;2023-02-04T08:17:14;62428.16;;;4.20;76.85
6899;BME280;3488;42.616;23.350;2023-02-04T08:19:42;62427.06;;;4.14;77.06
6899;BME280;3488;42.616;23.350;2023-02-04T08:22:08;62440.03;;;4.31;77.18
6899;BME280;3488;42.616;23.350;2023-02-04T08:24:37;62430.22;;;4.22;77.93
6899;BME280;3488;42.616;23.350;2023-02-04T08:27:04;62440.06;;;4.34;76.81
6899;BME280;3488;42.616;23.350;2023-02-04T08:29:31;62457.41;;;4.43;75.94
6899;BME280;3488;42.616;23.350;2023-02-04T08:31:58;62449.25;;;4.40;74.57
6899;BME280;3488;42.616;23.350;2023-02-04T08:34:25;62444.13;;;4.35;74.43
6899;BME280;3488;42.616;23.350;2023-02-04T08:36:52;62454.31;;;4.40;74.82
6899;BME280;3488;42.616;23.350;2023-02-04T08:39:19;62456.81;;;4.40;73.55
6899;BME280;3488;42.616;23.350;2023-02-04T08:41:47;62472.38;;;4.60;73.38
6899;BME280;3488;42.616;23.350;2023-02-04T08:44:15;62460.03;;;4.48;72.96
6899;BME280;3488;42.616;23.350;2023-02-04T08:46:42;62458.06;;;4.51;72.61
6899;BME280;3488;42.616;23.350;2023-02-04T08:49:09;62473.88;;;4.59;73.62
6899;BME280;3488;42.616;23.350;2023-02-04T08:51:36;62483.22;;;4.73;73.63
6899;BME280;3488;42.616;23.350;2023-02-04T08:54:04;62474.38;;;4.60;73.90
6899;BME280;3488;42.616;23.350;2023-02-04T08:56:31;62469.75;;;4.55;74.67
6899;BME280;3488;42.616;23.350;2023-02-04T08:59:01;62477.06;;;4.67;74.40
6899;BME280;3488;42.616;23.350;2023-02-04T09:01:27;62456.94;;;4.45;75.14
6899;BME280;3488;42.616;23.350;2023-02-04T09:03:54;62468.72;;;4.54;75.45
6899;BME280;3488;42.616;23.350;2023-02-04T09:06:21;62462.13;;;4.53;74.65
6899;BME280;3488;42.616;23.350;2023-02-04T09:08:48;62465.63;;;4.51;75.39
6899;BME280;3488;42.616;23.350;2023-02-04T09:11:16;62477.47;;;4.63;75.48
6899;BME280;3488;42.616;23.350;2023-02-04T09:13:43;62480.09;;;4.68;74.63
6899;BME280;3488;42.616;23.350;2023-02-04T09:16:11;62482.22;;;4.72;74.18
6899;BME280;3488;42.616;23.350;2023-02-04T09:18:39;62503.25;;;4.91;71.96
6899;BME280;3488;42.616;23.350;2023-02-04T09:21:06;62517.13;;;5.02;71.26
6899;BME280;3488;42.616;23.350;2023-02-04T09:23:33;62501.81;;;4.94;71.53
6899;BME280;3488;42.616;23.350;2023-02-04T09:25:59;62488.91;;;4.79;72.42
6899;BME280;3488;42.616;23.350;2023-02-04T09:28:28;62505.84;;;4.93;72.20
6899;BME280;3488;42.616;23.350;2023-02-04T09:30:55;62491.47;;;4.82;71.74
6899;BME280;3488;42.616;23.350;2023-02-04T09:33:23;62506.31;;;4.91;71.31
6899;BME280;3488;42.616;23.350;2023-02-04T09:35:50;62485.25;;;4.73;72.50
6899;BME280;3488;42.616;23.350;2023-02-04T09:38:17;62490.88;;;4.76;72.49
6899;BME280;3488;42.616;23.350;2023-02-04T09:40:48;62477.06;;;4.67;74.74
6899;BME280;3488;42.616;23.350;2023-02-04T09:43:20;62463.63;;;4.52;78.08
6899;BME280;3488;42.616;23.350;2023-02-04T09:45:49;62467.75;;;4.56;79.77
6899;BME280;3488;42.616;23.350;2023-02-04T09:48:18;62473.97;;;4.64;80.60
6899;BME280;3488;42.616;23.350;2023-02-04T09:50:49;62470.31;;;4.58;81.66
6899;BME280;3488;42.616;23.350;2023-02-04T09:53:19;62465.69;;;4.54;83.14
6899;BME280;3488;42.616;23.350;2023-02-04T09:55:50;62444.09;;;4.33;84.79
6899;BME280;3488;42.616;23.350;2023-02-04T09:58:18;62460.03;;;4.48;84.38
6899;BME280;3488;42.616;23.350;2023-02-04T10:00:46;62468.38;;;4.61;81.46
6899;BME280;3488;42.616;23.350;2023-02-04T10:03:15;62486.28;;;4.74;79.99
6899;BME280;3488;42.616;23.350;2023-02-04T10:05:44;62488.28;;;4.73;77.47
6899;BME280;3488;42.616;23.350;2023-02-04T10:08:16;62476.00;;;4.64;75.84
6899;BME280;3488;42.616;23.350;2023-02-04T10:10:46;62469.28;;;4.57;75.84
6899;BME280;3488;42.616;23.350;2023-02-04T10:13:16;62476.50;;;4.64;76.02
6899;BME280;3488;42.616;23.350;2023-02-04T10:15:44;62483.22;;;4.73;74.47
6899;BME280;3488;42.616;23.350;2023-02-04T10:18:16;62480.09;;;4.68;73.98
6899;BME280;3488;42.616;23.350;2023-02-04T10:20:45;62497.03;;;4.82;74.67
6899;BME280;3488;42.616;23.350;2023-02-04T10:23:12;62500.22;;;4.90;72.87
6899;BME280;3488;42.616;23.350;2023-02-04T10:25:44;62492.97;;;4.81;75.15
6899;BME280;3488;42.616;23.350;2023-02-04T10:28:12;62475.47;;;4.63;77.02
6899;BME280;3488;42.616;23.350;2023-02-04T10:30:40;62480.19;;;4.73;77.37
6899;BME280;3488;42.616;23.350;2023-02-04T10:33:12;62469.81;;;4.58;76.08
6899;BME280;3488;42.616;23.350;2023-02-04T10:35:44;62486.22;;;4.71;75.65
6899;BME280;3488;42.616;23.350;2023-02-04T10:38:12;62476.00;;;4.64;77.76
6899;BME280;3488;42.616;23.350;2023-02-04T10:40:39;62458.53;;;4.49;81.46
6899;BME280;3488;42.616;23.350;2023-02-04T10:43:09;62428.16;;;4.20;85.38
6899;BME280;3488;42.616;23.350;2023-02-04T10:45:37;62418.91;;;4.11;89.35
6899;BME280;3488;42.616;23.350;2023-02-04T10:48:04;62412.19;;;4.02;90.97
6899;BME280;3488;42.616;23.350;2023-02-04T10:50:32;62411.09;;;3.98;92.90
6899;BME280;3488;42.616;23.350;2023-02-04T10:52:59;62425.00;;;4.12;91.90
6899;BME280;3488;42.616;23.350;2023-02-04T10:55:42;62428.13;;;4.17;90.44
6899;BME280;3488;42.616;23.350;2023-02-04T10:58:14;62444.09;;;4.33;89.04
6899;BME280;3488;42.616;23.350;2023-02-04T11:00:43;62456.47;;;4.47;85.49
6899;BME280;3488;42.616;23.350;2023-02-04T11:03:14;62483.69;;;4.71;83.17
6899;BME280;3488;42.616;23.350;2023-02-04T11:05:41;62490.44;;;4.81;79.95
6899;BME280;3488;42.616;23.350;2023-02-04T11:08:20;62476.56;;;4.67;76.54
6899;BME280;3488;42.616;23.350;2023-02-04T11:10:54;62493.97;;;4.82;76.63
6899;BME280;3488;42.616;23.350;2023-02-04T11:13:25;62507.28;;;4.90;75.22
6899;BME280;3488;42.616;23.350;2023-02-04T11:16:11;62512.00;;;4.99;73.78
6899;BME280;3488;42.616;23.350;2023-02-04T11:18:47;62525.41;;;5.12;73.61
6899;BME280;3488;42.616;23.350;2023-02-04T11:21:22;62531.13;;;5.20;72.36
6899;BME280;3488;42.616;23.350;2023-02-04T11:23:50;62537.19;;;5.21;70.89
6899;BME280;3488;42.616;23.350;2023-02-04T11:26:33;62532.13;;;5.21;71.79
6899;BME280;3488;42.616;23.350;2023-02-04T11:29:24;62528.50;;;5.15;70.87
6899;BME280;3488;42.616;23.350;2023-02-04T11:32:01;62520.81;;;5.10;73.28
6899;BME280;3488;42.616;23.350;2023-02-04T11:34:43;62527.47;;;5.14;74.23
6899;BME280;3488;42.616;23.350;2023-02-04T11:37:17;62531.53;;;5.16;74.51
6899;BME280;3488;42.616;23.350;2023-02-04T11:39:46;62525.34;;;5.10;74.53
6899;BME280;3488;42.616;23.350;2023-02-04T11:42:18;62515.00;;;4.97;76.04
6899;BME280;3488;42.616;23.350;2023-02-04T11:44:57;62506.34;;;4.94;76.36
6899;BME280;3488;42.616;23.350;2023-02-04T11:47:26;62525.50;;;5.17;76.59
6899;BME280;3488;42.616;23.350;2023-02-04T11:49:56;62504.75;;;4.90;77.44
6899;BME280;3488;42.616;23.350;2023-02-04T11:52:25;62508.88;;;4.94;77.18
6899;BME280;3488;42.616;23.350;2023-02-04T11:54:53;62501.72;;;4.89;76.40
6899;BME280;3488;42.616;23.350;2023-02-04T11:57:21;62525.81;;;5.08;75.41
6899;BME280;3488;42.616;23.350;2023-02-04T11:59:49;62497.09;;;4.85;77.22
6899;BME280;3488;42.616;23.350;2023-02-04T12:02:21;62496.63;;;4.87;80.03
6899;BME280;3488;42.616;23.350;2023-02-04T12:04:53;62486.28;;;4.74;81.85
6899;BME280;3488;42.616;23.350;2023-02-04T12:07:34;62484.75;;;4.72;82.58
6899;BME280;3488;42.616;23.350;2023-02-04T12:10:10;62462.03;;;4.48;85.43
6899;BME280;3488;42.616;23.350;2023-02-04T12:12:41;62439.97;;;4.29;90.09
6899;BME280;3488;42.616;23.350;2023-02-04T12:15:22;62435.38;;;4.27;93.15
6899;BME280;3488;42.616;23.350;2023-02-04T12:18:02;62402.34;;;3.90;96.32
6899;BME280;3488;42.616;23.350;2023-02-04T12:20:31;62381.78;;;3.70;98.13
6899;BME280;3488;42.616;23.350;2023-02-04T12:22:58;62388.97;;;3.77;97.92
6899;BME280;3488;42.616;23.350;2023-02-04T12:25:25;62379.25;;;3.70;97.31
6899;BME280;3488;42.616;23.350;2023-02-04T12:30:44;62387.03;;;3.80;98.57
6899;BME280;3488;42.616;23.350;2023-02-04T12:36:39;62377.19;;;3.68;95.19
6899;BME280;3488;42.616;23.350;2023-02-04T12:40:13;62411.16;;;4.01;93.75
6899;BME280;3488;42.616;23.350;2023-02-04T12:42:44;62408.06;;;3.98;91.58
6899;BME280;3488;42.616;23.350;2023-02-04T12:45:37;62396.19;;;3.84;92.40
6899;BME280;3488;42.616;23.350;2023-02-04T13:08:28;62456.44;;;4.45;80.42
6899;BME280;3488;42.616;23.350;2023-02-04T13:10:55;62448.19;;;4.37;82.10
6899;BME280;3488;42.616;23.350;2023-02-04T13:13:22;62440.41;;;4.27;84.16
6899;BME280;3488;42.616;23.350;2023-02-04T13:15:49;62427.56;;;4.14;84.18
6899;BME280;3488;42.616;23.350;2023-02-04T13:18:16;62413.78;;;4.06;84.99
6899;BME280;3488;42.616;23.350;2023-02-04T13:20:43;62399.78;;;3.87;87.08
6899;BME280;3488;42.616;23.350;2023-02-04T13:23:11;62396.25;;;3.86;88.64
6899;BME280;3488;42.616;23.350;2023-02-04T13:25:40;62384.41;;;3.75;89.42
6899;BME280;3488;42.616;23.350;2023-02-04T13:28:08;62383.94;;;3.77;89.66
6899;BME280;3488;42.616;23.350;2023-02-04T13:30:35;62400.25;;;3.85;90.00
6899;BME280;3488;42.616;23.350;2023-02-04T13:33:02;62397.72;;;3.85;90.20
6899;BME280;3488;42.616;23.350;2023-02-04T13:35:29;62388.47;;;3.76;91.28
6899;BME280;3488;42.616;23.350;2023-02-04T13:37:57;62383.38;;;3.74;91.25
6899;BME280;3488;42.616;23.350;2023-02-04T13:40:24;62378.75;;;3.69;92.03
6899;BME280;3488;42.616;23.350;2023-02-04T13:42:52;62379.31;;;3.72;90.90
6899;BME280;3488;42.616;23.350;2023-02-04T13:45:19;62389.59;;;3.82;90.73
6899;BME280;3488;42.616;23.350;2023-02-04T13:47:46;62384.97;;;3.78;89.89
6899;BME280;3488;42.616;23.350;2023-02-04T13:50:13;62367.97;;;3.59;90.32
6899;BME280;3488;42.616;23.350;2023-02-04T13:52:40;62373.09;;;3.64;91.04